Logo AVAMET
Benvolgut visitant, si us plau, ingressa Recuperar contrasenya

Inforatge Castelló de la Plana Palau Festa

Dades diàries. Acumulats / Últims 30 dies disponibles

Data Temperatura (°C) Humitat rel. (%) Pressió rel. (hPa) Vent (km/h) Precipitació
Mínima Mitjana Màxima Amplitud
tèrmica
Mínima Mitjana Màxima Mínima Mitjana Màxima Predom. Mitjana Ràfega
màxima
Total
(mm)
Índex-n
Mínima Mitjana Màxima Mínima Mitjana Màxima n
0 a 1
P0 max
mm 5'
Dades mensuals acumulades fins l'últim dia disponible
12/2019 8,2 10,6 12,7 13,7 13,4 16,9 23,4 15,2 36 69 91 1.014 1.014 1.014   8,1 59,5 157,0
Dades anuals acumulades fins l'últim dia disponible
2019 2,3 15,0 26,4 18,6 12,7 22,3 35,9 33,6 17 65 94 1.014 1.016 1.016   7,5 79,6 341,6
Últims 30 dies disponibles
13-12-2019 12,4     19,8     23,4 11,0 41 52 70 1.014 1.014 1.014 WSW 12,4 49,9 0,0
12-12-2019 11,1     13,6     16,4 5,3 44 53 68 1.014 1.014 1.014 WSW 10,8 54,7 0,0
11-12-2019 8,8     12,5     16,8 8,0 47 65 78 1.014 1.014 1.014 W 4,5 35,4 0,0
10-12-2019 8,2     13,3     19,1 10,9 38 55 75 1.014 1.014 1.014 S 6,4 33,8 0,0
09-12-2019 11,3     15,4     20,0 8,7 36 55 84 1.014 1.014 1.014 W 7,9 33,8 0,0
08-12-2019 9,3     12,8     17,4 8,1 63 78 86 1.014 1.014 1.014 W 3,5 19,3 0,0
07-12-2019 8,7     12,2     16,6 7,9 68 81 87 1.014 1.014 1.014 ENE 4,3 17,7 0,0
06-12-2019 11,6     13,3     15,7 4,1 73 85 90 1.014 1.014 1.014 N 3,7 20,9 21,0 0,45 2,10
05-12-2019 11,2     12,6     14,1 2,9 78 85 91 1.014 1.014 1.014 N 7,2 29,0 74,2 0,36 4,70
04-12-2019 10,5     11,9     14,0 3,5 69 82 88 1.014 1.014 1.014 NNE 17,9 59,5 59,4 0,51 1,50
03-12-2019 10,8     12,1     13,4 2,6 54 65 82 1.014 1.014 1.014 N 9,3 40,2 2,2
02-12-2019 12,7     13,7     14,8 2,1 59 67 76 1.014 1.014 1.014 NNE 10,8 37,0 0,2
01-12-2019 11,5     14,4     17,7 6,2 65 73 89 1.014 1.014 1.014 ENE 6,4 29,0 0,0
30-11-2019 12,2     15,5     18,0 5,8 64 76 87 1.014 1.014 1.014 SE 4,2 19,3 0,0
29-11-2019 15,2     18,2     22,5 7,3 46 61 79 1.014 1.014 1.014 NNE 4,8 24,1 0,0
28-11-2019 13,2     17,8     22,7 9,5 39 52 65 1.014 1.014 1.014 S 8,5 38,6 0,0
27-11-2019 15,1     18,7     23,4 8,3 36 55 74 1.014 1.014 1.014 W 8,0 35,4 0,0
26-11-2019 11,7     15,9     20,2 8,5 51 62 70 1.014 1.014 1.014 SW 5,1 24,1 0,0
25-11-2019 10,6     16,9     24,0 13,4 35 55 76 1.014 1.014 1.014 W 5,1 35,4 0,0
24-11-2019 11,9     15,6     19,7 7,8 35 44 58 1.014 1.014 1.014 W 7,7 40,2 0,0
23-11-2019 13,2     15,3     17,6 4,4 36 52 85 1.014 1.014 1.014 W 10,8 46,7 0,0
22-11-2019 9,2     13,3     16,4 7,2 59 74 87 1.014 1.014 1.014 S 5,8 32,2 0,4
21-11-2019 8,8     13,2     17,3 8,5 45 64 74 1.014 1.014 1.014 S 9,0 40,2 0,0
20-11-2019 7,9     11,6     15,3 7,4 61 66 71 1.014 1.014 1.014 W 4,8 22,5 0,0
19-11-2019 7,9     11,3     15,4 7,5 38 50 64 1.014 1.014 1.014 W 8,2 30,6 0,0
18-11-2019 9,7     13,3     16,2 6,5 37 52 74 1.014 1.014 1.014 N 8,2 38,6 0,0
17-11-2019 8,3     13,2     18,9 10,6 38 51 64 1.014 1.014 1.014 W 8,4 40,2 0,0
16-11-2019 7,8     11,3     15,8 8,0 38 55 66 1.014 1.014 1.014 W 5,3 24,1 0,0
15-11-2019 9,7     12,2     15,7 6,0 38 51 65 1.014 1.014 1.014 W 6,8 33,8 0,0
14-11-2019 10,1     13,3     16,9 6,8 38 59 79 1.014 1.014 1.014 SW 9,0 45,1 0,0
Últims 13 mesos disponibles
11/2019 7,8 12,0 20,2 15,8 15,3 20,0 27,7 19,9 39 54 76 1.014 1.014 1.014 W 8,0 61,2 4,8
10/2019 10,8 16,9 22,1 20,3 17,3 24,0 28,2 17,4 48 70 82 1.014 1.014 1.014 S 6,0 53,1 19,8
09/2019 15,3 20,7 23,9 23,7 21,9 26,8 30,6 15,3 50 70 82 1.014 1.015 1.016 SE 7,7 56,3 65,6
08/2019 18,5 22,7 26,4 25,9 25,7 29,0 31,9 13,4 54 72 79 1.016 1.016 1.016 S 6,7 61,1 17,8
07/2019 21,6 23,1 25,3 26,5 27,1 29,4 33,2 11,6 49 67 78 1.016 1.016 1.016 SE 7,1 51,9 8,6
06/2019 12,8 18,9 23,1 22,4 20,7 25,8 35,9 23,1 41 64 79 1.016 1.016 1.016 S 8,1 59,6 0,0
05/2019 10,4 14,6 17,7 18,0 17,3 21,5 28,2 17,8 50 67 81 1.016 1.016 1.016 SE 7,8 53,7 13,0
04/2019 7,8 12,1 14,5 15,5 15,5 19,3 26,4 18,6 44 63 85 1.016 1.016 1.016 SSO 10,6 66,7 44,0
03/2019 7,7 10,4 13,2 14,5 13,4 18,8 25,2 17,5 41 59 78 1.016 1.016 1.016 S 7,0 53,7 10,4
02/2019 2,3 7,9 11,8 12,3 12,9 16,9 22,9 20,6 28 65 79 1.016 1.016 1.016 SSO 6,3 74,1 0,0
01/2019 3,7 7,2 10,4 11,6 12,7 16,5 22,5 18,8 37 57 78 1.016 1.016 1.016 SO 7,0 79,6 0,6
12/2018 6,6 10,0 12,7 13,6 14,1 18,0 24,2 17,6 51 69 83 1.016 1.016 1.016 SSO 4,1 68,5 7,2
11/2018 7,8 11,7 16,8 15,0 15,1 18,9 22,0 14,2 52 71 86 1.007 1.016 1.023 SO 6,3 48,3 89,4
Tots els anys disponibles
Temperatura (°C)
Humitat relativa (%)
Velocitat del vent i ràfega màxima (km/h)
Direcció del vent (°)
Pressió (hPa)
Precipitació (mm)
Nota sobre les dades: s'avisa a l'usuari de la provisionalitat i no oficialitat d'aquestes dades
Logo AVAMET blanc
Web allotjada a Sollutia
Llicència de Creative CommonsLa web d'AVAMET i els seus continguts estan subjectes a una llicència de
Reconeixement - No Comercial - Compartir igual
Últimes estacions: Aielo de Malferit - Centre (Soci), Faura (Inforatge), Benifairó de les Valls (Inforatge), Xàbia - Les Valls (Soci) - - -